sensor_id;sensor_type;location;lat;lon;timestamp;pressure;altitude;pressure_sealevel;temperature;humidity
6387;BME280;3226;42.162;24.756;2023-01-29T00:01:59;99815.25;;;2.39;76.11
6387;BME280;3226;42.162;24.756;2023-01-29T00:04:27;99807.31;;;2.62;75.48
6387;BME280;3226;42.162;24.756;2023-01-29T00:06:56;99816.38;;;2.53;75.79
6387;BME280;3226;42.162;24.756;2023-01-29T00:09:25;99813.16;;;2.48;75.60
6387;BME280;3226;42.162;24.756;2023-01-29T00:11:53;99796.66;;;2.31;76.11
6387;BME280;3226;42.162;24.756;2023-01-29T00:14:21;99822.44;;;2.52;75.67
6387;BME280;3226;42.162;24.756;2023-01-29T00:16:49;99829.06;;;2.57;75.77
6387;BME280;3226;42.162;24.756;2023-01-29T00:19:17;99824.03;;;2.54;75.58
6387;BME280;3226;42.162;24.756;2023-01-29T00:21:45;99832.09;;;2.48;75.28
6387;BME280;3226;42.162;24.756;2023-01-29T00:24:14;99818.41;;;2.46;76.01
6387;BME280;3226;42.162;24.756;2023-01-29T00:26:42;99808.81;;;2.48;75.91
6387;BME280;3226;42.162;24.756;2023-01-29T00:29:10;99834.94;;;2.61;75.00
6387;BME280;3226;42.162;24.756;2023-01-29T00:31:38;99828.38;;;2.54;74.57
6387;BME280;3226;42.162;24.756;2023-01-29T00:34:07;99843.28;;;2.68;74.40
6387;BME280;3226;42.162;24.756;2023-01-29T00:36:34;99843.91;;;2.54;74.92
6387;BME280;3226;42.162;24.756;2023-01-29T00:39:02;99841.72;;;2.64;75.23
6387;BME280;3226;42.162;24.756;2023-01-29T00:41:37;99847.25;;;2.56;75.50
6387;BME280;3226;42.162;24.756;2023-01-29T00:44:23;99829.91;;;2.58;75.19
6387;BME280;3226;42.162;24.756;2023-01-29T00:47:08;99844.59;;;2.57;74.87
6387;BME280;3226;42.162;24.756;2023-01-29T00:49:56;99825.16;;;2.29;75.38
6387;BME280;3226;42.162;24.756;2023-01-29T00:52:24;99843.00;;;2.36;75.89
6387;BME280;3226;42.162;24.756;2023-01-29T00:54:54;99854.16;;;2.36;75.98
6387;BME280;3226;42.162;24.756;2023-01-29T00:57:25;99851.09;;;2.28;76.12
6387;BME280;3226;42.162;24.756;2023-01-29T00:59:53;99846.50;;;2.35;75.71
6387;BME280;3226;42.162;24.756;2023-01-29T01:02:21;99846.84;;;2.46;75.45
6387;BME280;3226;42.162;24.756;2023-01-29T01:05:08;99847.47;;;2.32;75.35
6387;BME280;3226;42.162;24.756;2023-01-29T01:07:43;99845.97;;;2.45;75.63
6387;BME280;3226;42.162;24.756;2023-01-29T01:10:13;99848.22;;;2.34;75.68
6387;BME280;3226;42.162;24.756;2023-01-29T01:12:52;99832.28;;;2.24;75.09
6387;BME280;3226;42.162;24.756;2023-01-29T01:15:21;99851.28;;;2.42;75.85
6387;BME280;3226;42.162;24.756;2023-01-29T01:17:53;99848.50;;;2.47;75.00
6387;BME280;3226;42.162;24.756;2023-01-29T01:20:22;99850.81;;;2.34;75.47
6387;BME280;3226;42.162;24.756;2023-01-29T01:22:52;99852.00;;;2.46;75.59
6387;BME280;3226;42.162;24.756;2023-01-29T01:25:20;99853.88;;;2.23;75.88
6387;BME280;3226;42.162;24.756;2023-01-29T01:27:51;99846.13;;;2.23;76.01
6387;BME280;3226;42.162;24.756;2023-01-29T01:30:19;99839.34;;;2.21;76.39
6387;BME280;3226;42.162;24.756;2023-01-29T01:32:48;99855.00;;;2.37;76.45
6387;BME280;3226;42.162;24.756;2023-01-29T01:35:16;99851.94;;;2.48;75.69
6387;BME280;3226;42.162;24.756;2023-01-29T01:37:44;99852.44;;;2.37;75.94
6387;BME280;3226;42.162;24.756;2023-01-29T01:40:14;99855.78;;;2.39;76.49
6387;BME280;3226;42.162;24.756;2023-01-29T01:42:46;99857.59;;;2.37;76.68
6387;BME280;3226;42.162;24.756;2023-01-29T01:45:27;99851.66;;;2.15;76.79
6387;BME280;3226;42.162;24.756;2023-01-29T01:47:59;99854.72;;;2.24;77.29
6387;BME280;3226;42.162;24.756;2023-01-29T01:50:32;99850.19;;;2.29;77.61
6387;BME280;3226;42.162;24.756;2023-01-29T01:53:06;99856.44;;;2.23;77.20
6387;BME280;3226;42.162;24.756;2023-01-29T01:55:37;99851.56;;;2.36;76.59
6387;BME280;3226;42.162;24.756;2023-01-29T01:58:12;99841.09;;;2.20;76.79
6387;BME280;3226;42.162;24.756;2023-01-29T02:00:44;99854.84;;;2.21;76.99
6387;BME280;3226;42.162;24.756;2023-01-29T02:03:12;99844.56;;;2.19;76.53
6387;BME280;3226;42.162;24.756;2023-01-29T02:05:59;99851.38;;;2.22;76.86
6387;BME280;3226;42.162;24.756;2023-01-29T02:08:51;99857.50;;;2.19;77.29
6387;BME280;3226;42.162;24.756;2023-01-29T02:11:38;99855.53;;;2.05;77.37
6387;BME280;3226;42.162;24.756;2023-01-29T02:14:07;99860.00;;;2.01;77.89
6387;BME280;3226;42.162;24.756;2023-01-29T02:16:36;99858.53;;;2.15;77.74
6387;BME280;3226;42.162;24.756;2023-01-29T02:19:10;99865.53;;;2.13;77.60
6387;BME280;3226;42.162;24.756;2023-01-29T02:21:58;99866.78;;;2.23;77.87
6387;BME280;3226;42.162;24.756;2023-01-29T02:25:15;99868.47;;;2.24;77.37
6387;BME280;3226;42.162;24.756;2023-01-29T02:30:53;99865.72;;;2.08;78.04
6387;BME280;3226;42.162;24.756;2023-01-29T02:33:30;99885.72;;;2.24;77.85
6387;BME280;3226;42.162;24.756;2023-01-29T02:36:13;99885.72;;;2.24;77.35
6387;BME280;3226;42.162;24.756;2023-01-29T02:38:49;99887.72;;;2.38;77.52
6387;BME280;3226;42.162;24.756;2023-01-29T02:41:25;99884.81;;;2.25;77.11
6387;BME280;3226;42.162;24.756;2023-01-29T02:44:02;99879.22;;;2.15;77.60
6387;BME280;3226;42.162;24.756;2023-01-29T02:46:35;99884.88;;;2.23;77.94
6387;BME280;3226;42.162;24.756;2023-01-29T02:49:12;99888.75;;;2.34;77.55
6387;BME280;3226;42.162;24.756;2023-01-29T02:51:45;99883.00;;;2.27;78.29
6387;BME280;3226;42.162;24.756;2023-01-29T02:54:19;99884.25;;;2.18;78.86
6387;BME280;3226;42.162;24.756;2023-01-29T02:56:52;99888.16;;;2.08;78.79
6387;BME280;3226;42.162;24.756;2023-01-29T02:59:26;99883.94;;;2.05;78.41
6387;BME280;3226;42.162;24.756;2023-01-29T03:01:59;99882.66;;;1.95;79.45
6387;BME280;3226;42.162;24.756;2023-01-29T03:04:32;99880.03;;;1.96;79.80
6387;BME280;3226;42.162;24.756;2023-01-29T03:07:07;99889.50;;;1.96;79.99
6387;BME280;3226;42.162;24.756;2023-01-29T03:09:41;99887.25;;;1.88;80.66
6387;BME280;3226;42.162;24.756;2023-01-29T03:12:18;99888.00;;;2.11;80.35
6387;BME280;3226;42.162;24.756;2023-01-29T03:15:03;99892.84;;;2.19;80.62
6387;BME280;3226;42.162;24.756;2023-01-29T03:17:44;99896.56;;;2.32;80.02
6387;BME280;3226;42.162;24.756;2023-01-29T03:20:16;99898.66;;;2.03;80.66
6387;BME280;3226;42.162;24.756;2023-01-29T03:23:00;99899.13;;;1.92;81.63
6387;BME280;3226;42.162;24.756;2023-01-29T03:25:29;99908.94;;;2.05;80.95
6387;BME280;3226;42.162;24.756;2023-01-29T03:28:17;99908.31;;;1.99;80.79
6387;BME280;3226;42.162;24.756;2023-01-29T03:31:07;99905.88;;;1.96;80.39
6387;BME280;3226;42.162;24.756;2023-01-29T03:33:59;99912.56;;;2.00;80.22
6387;BME280;3226;42.162;24.756;2023-01-29T03:36:33;99914.16;;;2.03;80.38
6387;BME280;3226;42.162;24.756;2023-01-29T03:39:06;99917.06;;;2.16;80.37
6387;BME280;3226;42.162;24.756;2023-01-29T03:41:38;99897.25;;;2.16;79.92
6387;BME280;3226;42.162;24.756;2023-01-29T03:44:12;99913.25;;;2.25;79.66
6387;BME280;3226;42.162;24.756;2023-01-29T03:46:49;99919.69;;;2.35;79.56
6387;BME280;3226;42.162;24.756;2023-01-29T03:49:25;99924.66;;;2.40;79.15
6387;BME280;3226;42.162;24.756;2023-01-29T03:51:59;99919.22;;;2.46;79.20
6387;BME280;3226;42.162;24.756;2023-01-29T03:54:38;99921.31;;;2.38;79.50
6387;BME280;3226;42.162;24.756;2023-01-29T03:57:12;99928.53;;;2.29;79.24
6387;BME280;3226;42.162;24.756;2023-01-29T03:59:49;99922.81;;;2.23;80.30
6387;BME280;3226;42.162;24.756;2023-01-29T04:02:23;99924.81;;;2.16;79.72
6387;BME280;3226;42.162;24.756;2023-01-29T04:04:56;99929.22;;;2.35;79.87
6387;BME280;3226;42.162;24.756;2023-01-29T04:07:27;99934.09;;;2.41;79.46
6387;BME280;3226;42.162;24.756;2023-01-29T04:10:02;99942.00;;;2.38;79.83
6387;BME280;3226;42.162;24.756;2023-01-29T04:12:36;99924.78;;;2.17;80.35
6387;BME280;3226;42.162;24.756;2023-01-29T04:15:08;99940.69;;;2.27;80.36
6387;BME280;3226;42.162;24.756;2023-01-29T04:17:41;99947.13;;;1.98;81.67
6387;BME280;3226;42.162;24.756;2023-01-29T04:20:11;99952.47;;;1.93;82.39
6387;BME280;3226;42.162;24.756;2023-01-29T04:22:39;99945.88;;;1.65;83.39
6387;BME280;3226;42.162;24.756;2023-01-29T04:25:13;99950.53;;;1.78;83.59
6387;BME280;3226;42.162;24.756;2023-01-29T04:27:46;99933.34;;;1.77;83.45
6387;BME280;3226;42.162;24.756;2023-01-29T04:30:25;99967.19;;;1.70;83.77
6387;BME280;3226;42.162;24.756;2023-01-29T04:33:02;99960.78;;;1.58;84.85
6387;BME280;3226;42.162;24.756;2023-01-29T04:35:43;99943.06;;;1.49;84.97
6387;BME280;3226;42.162;24.756;2023-01-29T04:38:21;99964.44;;;1.53;85.33
6387;BME280;3226;42.162;24.756;2023-01-29T04:41:01;99959.47;;;1.48;85.89
6387;BME280;3226;42.162;24.756;2023-01-29T04:43:38;99970.63;;;1.49;86.08
6387;BME280;3226;42.162;24.756;2023-01-29T04:46:12;99968.38;;;1.62;86.22
6387;BME280;3226;42.162;24.756;2023-01-29T04:48:54;99972.59;;;1.64;86.67
6387;BME280;3226;42.162;24.756;2023-01-29T04:51:32;99975.31;;;1.61;87.38
6387;BME280;3226;42.162;24.756;2023-01-29T04:54:08;99964.38;;;1.54;87.93
6387;BME280;3226;42.162;24.756;2023-01-29T04:56:42;99973.28;;;1.68;88.85
6387;BME280;3226;42.162;24.756;2023-01-29T04:59:18;99978.25;;;1.52;89.39
6387;BME280;3226;42.162;24.756;2023-01-29T05:01:47;99984.00;;;1.58;90.19
6387;BME280;3226;42.162;24.756;2023-01-29T05:04:19;99978.22;;;1.74;89.63
6387;BME280;3226;42.162;24.756;2023-01-29T05:06:48;99985.13;;;1.73;89.78
6387;BME280;3226;42.162;24.756;2023-01-29T05:09:17;99982.69;;;1.70;90.35
6387;BME280;3226;42.162;24.756;2023-01-29T05:11:46;99979.56;;;1.62;90.51
6387;BME280;3226;42.162;24.756;2023-01-29T05:14:17;99980.22;;;1.67;90.29
6387;BME280;3226;42.162;24.756;2023-01-29T05:16:49;99982.94;;;1.85;89.97
6387;BME280;3226;42.162;24.756;2023-01-29T05:19:19;99986.69;;;1.78;90.18
6387;BME280;3226;42.162;24.756;2023-01-29T05:21:49;99986.84;;;1.73;90.20
6387;BME280;3226;42.162;24.756;2023-01-29T05:24:19;99988.63;;;1.72;90.05
6387;BME280;3226;42.162;24.756;2023-01-29T05:26:49;99986.63;;;1.79;89.79
6387;BME280;3226;42.162;24.756;2023-01-29T05:29:35;99993.84;;;1.49;90.41
6387;BME280;3226;42.162;24.756;2023-01-29T05:32:03;99997.81;;;1.57;90.51
6387;BME280;3226;42.162;24.756;2023-01-29T05:34:33;99994.03;;;1.66;90.34
6387;BME280;3226;42.162;24.756;2023-01-29T05:37:01;100001.16;;;1.82;90.49
6387;BME280;3226;42.162;24.756;2023-01-29T05:39:29;100001.94;;;1.84;90.12
6387;BME280;3226;42.162;24.756;2023-01-29T05:41:57;100003.09;;;1.77;89.62
6387;BME280;3226;42.162;24.756;2023-01-29T05:44:25;100004.13;;;1.72;89.49
6387;BME280;3226;42.162;24.756;2023-01-29T05:46:53;100008.78;;;1.63;89.53
6387;BME280;3226;42.162;24.756;2023-01-29T05:49:22;100001.66;;;1.69;90.02
6387;BME280;3226;42.162;24.756;2023-01-29T05:51:51;99951.47;;;1.54;88.96
6387;BME280;3226;42.162;24.756;2023-01-29T05:54:19;100017.03;;;1.93;88.75
6387;BME280;3226;42.162;24.756;2023-01-29T05:56:47;100019.13;;;2.06;88.57
6387;BME280;3226;42.162;24.756;2023-01-29T05:59:15;100031.84;;;2.10;87.62
6387;BME280;3226;42.162;24.756;2023-01-29T06:01:43;100025.00;;;1.88;88.04
6387;BME280;3226;42.162;24.756;2023-01-29T06:04:11;100026.28;;;1.99;87.91
6387;BME280;3226;42.162;24.756;2023-01-29T06:06:39;100007.28;;;1.79;87.63
6387;BME280;3226;42.162;24.756;2023-01-29T06:09:10;100029.91;;;1.95;87.20
6387;BME280;3226;42.162;24.756;2023-01-29T06:11:38;100031.72;;;1.93;87.61
6387;BME280;3226;42.162;24.756;2023-01-29T06:14:06;100037.34;;;2.02;87.99
6387;BME280;3226;42.162;24.756;2023-01-29T06:16:34;100031.28;;;2.24;87.25
6387;BME280;3226;42.162;24.756;2023-01-29T06:19:02;100032.31;;;2.20;86.92
6387;BME280;3226;42.162;24.756;2023-01-29T06:21:30;100042.53;;;2.23;86.66
6387;BME280;3226;42.162;24.756;2023-01-29T06:23:58;100031.84;;;2.10;86.49
6387;BME280;3226;42.162;24.756;2023-01-29T06:26:28;100047.03;;;2.18;86.76
6387;BME280;3226;42.162;24.756;2023-01-29T06:28:56;100046.00;;;2.22;86.59
6387;BME280;3226;42.162;24.756;2023-01-29T06:31:24;100057.78;;;2.29;87.19
6387;BME280;3226;42.162;24.756;2023-01-29T06:34:05;100066.47;;;2.06;85.76
6387;BME280;3226;42.162;24.756;2023-01-29T06:36:33;100067.31;;;2.07;86.02
6387;BME280;3226;42.162;24.756;2023-01-29T06:39:01;100061.00;;;2.14;85.71
6387;BME280;3226;42.162;24.756;2023-01-29T06:41:31;100049.19;;;1.86;84.72
6387;BME280;3226;42.162;24.756;2023-01-29T06:43:59;100047.25;;;1.91;85.56
6387;BME280;3226;42.162;24.756;2023-01-29T06:46:27;100049.75;;;2.15;84.95
6387;BME280;3226;42.162;24.756;2023-01-29T06:48:57;100070.25;;;2.40;84.65
6387;BME280;3226;42.162;24.756;2023-01-29T06:51:26;100067.22;;;2.51;84.19
6387;BME280;3226;42.162;24.756;2023-01-29T06:53:54;100067.50;;;2.66;83.00
6387;BME280;3226;42.162;24.756;2023-01-29T06:56:22;100070.97;;;2.44;81.76
6387;BME280;3226;42.162;24.756;2023-01-29T06:58:52;100073.44;;;2.68;81.44
6387;BME280;3226;42.162;24.756;2023-01-29T07:01:20;100081.19;;;2.68;81.68
6387;BME280;3226;42.162;24.756;2023-01-29T07:04:01;100080.53;;;2.63;81.66
6387;BME280;3226;42.162;24.756;2023-01-29T07:06:32;100080.66;;;2.80;81.13
6387;BME280;3226;42.162;24.756;2023-01-29T07:09:00;100097.78;;;2.83;80.37
6387;BME280;3226;42.162;24.756;2023-01-29T07:11:28;100075.47;;;3.01;80.48
6387;BME280;3226;42.162;24.756;2023-01-29T07:13:58;100068.84;;;2.94;79.98
6387;BME280;3226;42.162;24.756;2023-01-29T07:16:26;100092.38;;;3.08;79.66
6387;BME280;3226;42.162;24.756;2023-01-29T07:18:54;100095.94;;;3.06;79.78
6387;BME280;3226;42.162;24.756;2023-01-29T07:21:22;100088.19;;;3.06;79.32
6387;BME280;3226;42.162;24.756;2023-01-29T07:23:50;100097.44;;;3.11;80.63
6387;BME280;3226;42.162;24.756;2023-01-29T07:26:18;100101.53;;;2.96;80.53
6387;BME280;3226;42.162;24.756;2023-01-29T07:28:46;100096.84;;;3.04;80.70
6387;BME280;3226;42.162;24.756;2023-01-29T07:31:15;100090.50;;;3.12;80.48
6387;BME280;3226;42.162;24.756;2023-01-29T07:33:43;100089.19;;;3.22;80.26
6387;BME280;3226;42.162;24.756;2023-01-29T07:36:12;100098.25;;;3.31;79.64
6387;BME280;3226;42.162;24.756;2023-01-29T07:38:40;100092.94;;;3.15;79.06
6387;BME280;3226;42.162;24.756;2023-01-29T07:41:09;100100.50;;;3.20;79.55
6387;BME280;3226;42.162;24.756;2023-01-29T07:43:38;100098.97;;;3.35;78.82
6387;BME280;3226;42.162;24.756;2023-01-29T07:46:06;100100.66;;;3.55;78.48
6387;BME280;3226;42.162;24.756;2023-01-29T07:48:36;100094.28;;;3.62;78.27
6387;BME280;3226;42.162;24.756;2023-01-29T07:51:04;100108.09;;;3.43;78.00
6387;BME280;3226;42.162;24.756;2023-01-29T07:53:32;100106.16;;;3.66;77.45
6387;BME280;3226;42.162;24.756;2023-01-29T07:56:01;100110.72;;;3.61;77.74
6387;BME280;3226;42.162;24.756;2023-01-29T07:58:30;100110.19;;;3.73;76.52
6387;BME280;3226;42.162;24.756;2023-01-29T08:01:04;100098.97;;;3.35;77.97
6387;BME280;3226;42.162;24.756;2023-01-29T08:03:32;100117.88;;;3.75;77.58
6387;BME280;3226;42.162;24.756;2023-01-29T08:06:03;100115.41;;;3.72;78.60
6387;BME280;3226;42.162;24.756;2023-01-29T08:08:31;100117.72;;;3.59;78.11
6387;BME280;3226;42.162;24.756;2023-01-29T08:11:00;100118.16;;;3.50;77.82
6387;BME280;3226;42.162;24.756;2023-01-29T08:13:28;100127.41;;;3.36;79.49
6387;BME280;3226;42.162;24.756;2023-01-29T08:15:58;100121.00;;;3.82;79.21
6387;BME280;3226;42.162;24.756;2023-01-29T08:18:26;100125.56;;;3.96;77.66
6387;BME280;3226;42.162;24.756;2023-01-29T08:20:58;100126.94;;;4.03;78.25
6387;BME280;3226;42.162;24.756;2023-01-29T08:23:28;100109.69;;;4.02;77.65
6387;BME280;3226;42.162;24.756;2023-01-29T08:25:56;100129.59;;;4.01;78.27
6387;BME280;3226;42.162;24.756;2023-01-29T08:28:24;100125.06;;;4.24;77.90
6387;BME280;3226;42.162;24.756;2023-01-29T08:30:52;100118.81;;;4.28;78.29
6387;BME280;3226;42.162;24.756;2023-01-29T08:33:20;100133.53;;;4.45;75.48
6387;BME280;3226;42.162;24.756;2023-01-29T08:36:05;100135.81;;;3.97;76.18
6387;BME280;3226;42.162;24.756;2023-01-29T08:38:35;100132.06;;;3.85;77.59
6387;BME280;3226;42.162;24.756;2023-01-29T08:41:03;100117.19;;;3.71;78.08
6387;BME280;3226;42.162;24.756;2023-01-29T08:43:31;100137.63;;;3.78;77.98
6387;BME280;3226;42.162;24.756;2023-01-29T08:46:02;100143.34;;;3.65;78.82
6387;BME280;3226;42.162;24.756;2023-01-29T08:48:30;100141.81;;;3.80;78.45
6387;BME280;3226;42.162;24.756;2023-01-29T08:50:59;100152.72;;;3.87;78.22
6387;BME280;3226;42.162;24.756;2023-01-29T08:53:27;100135.72;;;3.81;78.99
6387;BME280;3226;42.162;24.756;2023-01-29T08:55:57;100146.34;;;3.94;77.80
6387;BME280;3226;42.162;24.756;2023-01-29T08:58:25;100149.63;;;3.98;78.35
6387;BME280;3226;42.162;24.756;2023-01-29T09:00:53;100147.94;;;4.16;77.88
6387;BME280;3226;42.162;24.756;2023-01-29T09:03:21;100116.06;;;4.31;77.37
6387;BME280;3226;42.162;24.756;2023-01-29T09:05:49;100149.34;;;4.58;77.06
6387;BME280;3226;42.162;24.756;2023-01-29T09:08:17;100144.59;;;4.67;76.63
6387;BME280;3226;42.162;24.756;2023-01-29T09:10:44;100142.53;;;4.73;76.62
6387;BME280;3226;42.162;24.756;2023-01-29T09:13:14;100144.59;;;4.84;75.66
6387;BME280;3226;42.162;24.756;2023-01-29T09:15:42;100142.28;;;4.96;75.08
6387;BME280;3226;42.162;24.756;2023-01-29T09:18:10;100147.84;;;5.05;74.64
6387;BME280;3226;42.162;24.756;2023-01-29T09:20:38;100140.00;;;4.72;76.34
6387;BME280;3226;42.162;24.756;2023-01-29T09:23:07;100122.19;;;4.48;77.44
6387;BME280;3226;42.162;24.756;2023-01-29T09:25:36;100141.94;;;4.68;76.62
6387;BME280;3226;42.162;24.756;2023-01-29T09:28:04;100143.53;;;4.88;76.77
6387;BME280;3226;42.162;24.756;2023-01-29T09:30:34;100131.94;;;4.78;77.20
6387;BME280;3226;42.162;24.756;2023-01-29T09:33:04;100133.16;;;4.71;77.67
6387;BME280;3226;42.162;24.756;2023-01-29T09:35:32;100132.75;;;4.78;78.05
6387;BME280;3226;42.162;24.756;2023-01-29T09:38:01;100140.56;;;4.78;78.15
6387;BME280;3226;42.162;24.756;2023-01-29T09:40:32;100116.75;;;4.70;77.63
6387;BME280;3226;42.162;24.756;2023-01-29T09:43:05;100118.44;;;4.71;78.04
6387;BME280;3226;42.162;24.756;2023-01-29T09:45:35;100131.16;;;4.76;78.47
6387;BME280;3226;42.162;24.756;2023-01-29T09:48:10;100131.00;;;4.97;77.07
6387;BME280;3226;42.162;24.756;2023-01-29T09:50:41;100125.94;;;4.60;78.35
6387;BME280;3226;42.162;24.756;2023-01-29T09:53:16;100123.16;;;4.81;77.97
6387;BME280;3226;42.162;24.756;2023-01-29T09:55:49;100125.41;;;4.87;77.29
6387;BME280;3226;42.162;24.756;2023-01-29T09:58:23;100124.66;;;4.85;77.70
6387;BME280;3226;42.162;24.756;2023-01-29T10:01:01;100121.16;;;4.86;77.25
6387;BME280;3226;42.162;24.756;2023-01-29T10:03:44;100114.81;;;4.91;76.33
6387;BME280;3226;42.162;24.756;2023-01-29T10:06:26;100119.31;;;4.88;76.19
6387;BME280;3226;42.162;24.756;2023-01-29T10:09:30;100113.31;;;4.87;75.99
6387;BME280;3226;42.162;24.756;2023-01-29T10:12:14;100098.91;;;4.64;77.57
6387;BME280;3226;42.162;24.756;2023-01-29T10:14:54;100112.44;;;4.87;76.74
6387;BME280;3226;42.162;24.756;2023-01-29T10:17:43;100111.31;;;4.75;77.45
6387;BME280;3226;42.162;24.756;2023-01-29T10:20:33;100106.88;;;4.77;76.67
6387;BME280;3226;42.162;24.756;2023-01-29T10:23:15;100102.06;;;4.87;76.35
6387;BME280;3226;42.162;24.756;2023-01-29T10:25:45;100101.34;;;5.01;75.22
6387;BME280;3226;42.162;24.756;2023-01-29T10:28:17;100093.59;;;5.17;74.30
6387;BME280;3226;42.162;24.756;2023-01-29T10:30:48;100092.94;;;5.29;74.16
6387;BME280;3226;42.162;24.756;2023-01-29T10:33:23;100089.84;;;5.23;74.47
6387;BME280;3226;42.162;24.756;2023-01-29T10:36:00;100078.59;;;5.22;74.19
6387;BME280;3226;42.162;24.756;2023-01-29T10:38:38;100083.03;;;5.20;73.36
6387;BME280;3226;42.162;24.756;2023-01-29T10:41:45;100084.66;;;5.23;73.71
6387;BME280;3226;42.162;24.756;2023-01-29T10:44:23;100054.75;;;5.15;74.12
6387;BME280;3226;42.162;24.756;2023-01-29T10:47:20;100075.84;;;5.25;74.26
6387;BME280;3226;42.162;24.756;2023-01-29T10:50:16;100057.50;;;5.44;72.34
6387;BME280;3226;42.162;24.756;2023-01-29T10:52:56;100065.75;;;5.53;71.99
6387;BME280;3226;42.162;24.756;2023-01-29T10:55:42;100052.81;;;5.51;71.33
6387;BME280;3226;42.162;24.756;2023-01-29T10:58:20;100057.66;;;5.73;70.88
6387;BME280;3226;42.162;24.756;2023-01-29T11:00:50;100034.38;;;5.72;69.96
6387;BME280;3226;42.162;24.756;2023-01-29T11:03:22;100050.19;;;5.83;70.27
6387;BME280;3226;42.162;24.756;2023-01-29T11:06:00;100051.19;;;5.81;70.06
6387;BME280;3226;42.162;24.756;2023-01-29T11:08:33;100047.63;;;5.67;69.82
6387;BME280;3226;42.162;24.756;2023-01-29T11:11:07;100053.06;;;5.46;71.37
6387;BME280;3226;42.162;24.756;2023-01-29T11:13:40;100054.91;;;5.60;71.28
6387;BME280;3226;42.162;24.756;2023-01-29T11:16:09;100046.78;;;5.67;69.47
6387;BME280;3226;42.162;24.756;2023-01-29T11:18:52;100044.22;;;5.50;70.43
6387;BME280;3226;42.162;24.756;2023-01-29T11:21:23;100047.44;;;5.38;70.64
6387;BME280;3226;42.162;24.756;2023-01-29T11:24:04;100034.13;;;5.60;70.25
6387;BME280;3226;42.162;24.756;2023-01-29T11:26:36;100030.34;;;5.66;69.38
6387;BME280;3226;42.162;24.756;2023-01-29T11:29:32;100035.50;;;5.52;69.60
6387;BME280;3226;42.162;24.756;2023-01-29T11:32:03;100033.06;;;5.32;70.24
6387;BME280;3226;42.162;24.756;2023-01-29T11:34:32;100007.66;;;5.05;72.16
6387;BME280;3226;42.162;24.756;2023-01-29T11:37:03;100018.06;;;5.54;71.10
6387;BME280;3226;42.162;24.756;2023-01-29T11:39:42;100017.28;;;5.68;70.16
6387;BME280;3226;42.162;24.756;2023-01-29T11:42:18;100014.94;;;5.63;70.66
6387;BME280;3226;42.162;24.756;2023-01-29T11:44:47;100010.28;;;5.84;69.88
6387;BME280;3226;42.162;24.756;2023-01-29T11:47:18;100001.56;;;6.16;67.96
6387;BME280;3226;42.162;24.756;2023-01-29T11:49:51;99994.25;;;6.22;66.30
6387;BME280;3226;42.162;24.756;2023-01-29T11:52:23;100004.56;;;6.24;67.71
6387;BME280;3226;42.162;24.756;2023-01-29T11:54:53;100008.78;;;6.56;65.79
6387;BME280;3226;42.162;24.756;2023-01-29T11:57:27;100008.22;;;6.50;64.81
6387;BME280;3226;42.162;24.756;2023-01-29T11:59:59;100001.97;;;6.53;64.29
6387;BME280;3226;42.162;24.756;2023-01-29T12:02:32;100003.19;;;6.62;63.84
6387;BME280;3226;42.162;24.756;2023-01-29T12:05:05;99999.41;;;6.68;64.72
6387;BME280;3226;42.162;24.756;2023-01-29T12:07:44;99999.69;;;6.77;64.77
6387;BME280;3226;42.162;24.756;2023-01-29T12:10:31;99988.34;;;6.49;65.67
6387;BME280;3226;42.162;24.756;2023-01-29T12:13:05;99988.91;;;6.40;65.68
6387;BME280;3226;42.162;24.756;2023-01-29T12:15:33;99984.31;;;6.29;64.99
6387;BME280;3226;42.162;24.756;2023-01-29T12:18:06;99981.63;;;6.31;65.19
6387;BME280;3226;42.162;24.756;2023-01-29T12:20:41;99983.34;;;6.16;64.79
6387;BME280;3226;42.162;24.756;2023-01-29T12:23:22;99974.34;;;6.07;65.18
6387;BME280;3226;42.162;24.756;2023-01-29T12:25:59;99968.72;;;5.99;64.84
6387;BME280;3226;42.162;24.756;2023-01-29T12:28:45;99975.59;;;6.00;64.58
6387;BME280;3226;42.162;24.756;2023-01-29T12:31:25;99972.69;;;6.06;64.59
6387;BME280;3226;42.162;24.756;2023-01-29T12:34:00;99972.88;;;6.03;64.76
6387;BME280;3226;42.162;24.756;2023-01-29T12:36:35;99945.03;;;5.89;65.29
6387;BME280;3226;42.162;24.756;2023-01-29T12:39:08;99964.38;;;5.99;64.85
6387;BME280;3226;42.162;24.756;2023-01-29T12:41:41;99955.41;;;6.05;65.01
6387;BME280;3226;42.162;24.756;2023-01-29T12:44:16;99961.69;;;6.01;64.57
6387;BME280;3226;42.162;24.756;2023-01-29T12:46:49;99955.34;;;5.90;64.84
6387;BME280;3226;42.162;24.756;2023-01-29T12:49:22;99964.81;;;5.91;65.28
6387;BME280;3226;42.162;24.756;2023-01-29T12:51:54;99967.88;;;5.84;65.76
6387;BME280;3226;42.162;24.756;2023-01-29T12:54:32;99964.38;;;5.99;65.73
6387;BME280;3226;42.162;24.756;2023-01-29T12:57:03;99961.38;;;5.91;65.84
6387;BME280;3226;42.162;24.756;2023-01-29T12:59:40;99964.97;;;5.88;65.27
6387;BME280;3226;42.162;24.756;2023-01-29T13:02:20;99967.22;;;5.94;64.81
6387;BME280;3226;42.162;24.756;2023-01-29T13:04:56;99969.41;;;6.02;64.03
6387;BME280;3226;42.162;24.756;2023-01-29T13:07:30;99951.63;;;5.94;64.16
6387;BME280;3226;42.162;24.756;2023-01-29T13:10:06;99966.81;;;6.02;63.77
6387;BME280;3226;42.162;24.756;2023-01-29T13:12:36;99967.78;;;6.00;64.18
6387;BME280;3226;42.162;24.756;2023-01-29T13:15:19;99969.50;;;6.01;63.95
6387;BME280;3226;42.162;24.756;2023-01-29T13:17:52;99970.50;;;5.98;64.66
6387;BME280;3226;42.162;24.756;2023-01-29T13:20:23;99966.13;;;5.99;64.53
6387;BME280;3226;42.162;24.756;2023-01-29T13:22:57;99966.03;;;6.00;63.67
6387;BME280;3226;42.162;24.756;2023-01-29T13:25:27;99969.34;;;6.04;63.25
6387;BME280;3226;42.162;24.756;2023-01-29T13:27:55;99961.78;;;5.99;63.91
6387;BME280;3226;42.162;24.756;2023-01-29T13:30:25;99959.09;;;6.01;64.15
6387;BME280;3226;42.162;24.756;2023-01-29T13:32:54;99965.16;;;6.01;63.79
6387;BME280;3226;42.162;24.756;2023-01-29T13:35:37;99965.81;;;6.05;64.16
6387;BME280;3226;42.162;24.756;2023-01-29T13:38:21;99965.72;;;6.06;63.29
6387;BME280;3226;42.162;24.756;2023-01-29T13:40:53;99940.31;;;5.96;62.90
6387;BME280;3226;42.162;24.756;2023-01-29T13:43:24;99969.16;;;6.07;62.32
6387;BME280;3226;42.162;24.756;2023-01-29T13:45:53;99876.41;;;5.46;62.11
6387;BME280;3226;42.162;24.756;2023-01-29T13:48:25;99963.63;;;5.97;61.80
6387;BME280;3226;42.162;24.756;2023-01-29T13:50:54;99967.69;;;5.87;61.19
6387;BME280;3226;42.162;24.756;2023-01-29T13:53:26;99967.88;;;5.84;61.17